Logo AVAMET
Benvolgut visitant, si us plau, ingressa Recuperar contrasenya

Picassent

Dades diàries. Acumulats / Últims 30 dies disponibles

Data Temperatura (°C) Humitat rel. (%) Pressió rel. (hPa) Vent (km/h) Precipitació
Mínima Mitjana Màxima Amplitud
tèrmica
Mínima Mitjana Màxima Mínima Mitjana Màxima Predom. Mitjana Ràfega
màxima
Total
(mm)
Índex-n
Mínima Mitjana Màxima Mínima Mitjana Màxima n
0 a 1
P0 max
mm 5'
Dades mensuals acumulades fins l'últim dia disponible
01/2020 2,3 5,7 8,4 10,2 13,6 16,2 19,4 17,1 28 71 94 1.022 1.030 1.035   4,3 40,0 1,1
Dades anuals acumulades fins l'últim dia disponible
2020 2,3 5,7 8,4 10,2 13,6 16,2 19,4 17,1 28 71 94 1.022 1.030 1.035   4,3 40,0 1,1
Últims 30 dies disponibles
17-01-2020 8,4     14,0     18,1 9,7 42 52 83 1.028 1.030 1.033 O 7,4 40,0 0,0
16-01-2020 6,9     11,8     17,4 10,5 51 71 83 1.027 1.029 1.030 OSO 3,6 17,2 0,0
15-01-2020 7,8     12,6     18,8 11,0 41 57 68 1.024 1.026 1.028 O 6,7 25,2 0,0
14-01-2020 6,6     11,0     17,4 10,8 32 55 74 1.022 1.023 1.025 O 5,7 23,7 0,0
13-01-2020 2,3     9,1     17,3 15,0 28 59 81 1.023 1.026 1.031 OSO 4,2 27,0 0,0
12-01-2020 4,8     9,0     14,4 9,6 44 67 85 1.030 1.031 1.032 SSO 3,8 19,8 0,0
11-01-2020 5,4     10,1     16,2 10,8 44 64 82 1.029 1.031 1.033 O 4,2 17,9 0,0
10-01-2020 6,5     10,7     15,6 9,1 40 72 93 1.024 1.027 1.030 SSO 5,5 32,4 0,0
09-01-2020 5,8     9,7     15,9 10,1 56 83 92 1.026 1.029 1.032 OSO 3,8 18,3 0,0
08-01-2020 5,4     9,0     14,8 9,4 75 84 92 1.029 1.031 1.033 O 3,2 14,1 0,3
07-01-2020 4,9     9,4     15,9 11,0 54 79 91 1.030 1.031 1.033 OSO 3,4 15,5 0,0
06-01-2020 6,7     10,1     15,4 8,7 60 80 91 1.029 1.030 1.032 OSO 3,2 11,8 0,0
05-01-2020 4,7     10,4     19,4 14,7 36 71 86 1.028 1.030 1.033 OSO 4,1 14,1 0,0
04-01-2020 6,3     10,1     15,9 9,6 50 72 83 1.033 1.034 1.035 OSO 4,1 20,2 0,0
03-01-2020 3,9     8,6     13,6 9,7 61 84 94 1.031 1.032 1.034 OSO 2,8 16,1 0,5
02-01-2020 5,9     9,0     14,1 8,2 62 82 90 1.031 1.033 1.035 SO 3,6 12,2 0,0
01-01-2020 5,2     9,0     14,7 9,5 64 81 91 1.032 1.033 1.035 O 3,5 16,1 0,3
31-12-2019 5,3     9,4     14,9 9,6 62 81 89 1.033 1.034 1.036 O 3,0 13,7 0,0
30-12-2019 8,9     10,9     14,9 6,0 61 78 87 1.033 1.034 1.036 O 5,3 16,5 0,0
29-12-2019 7,1     10,4     16,1 9,0 58 81 89 1.031 1.033 1.035 O 4,1 13,7 0,0
28-12-2019 6,3     10,6     15,1 8,8 64 82 92 1.030 1.031 1.034 SO 3,6 15,5 0,0
27-12-2019 8,7     12,3     17,4 8,7 55 78 91 1.029 1.030 1.032 SO 3,1 13,7 0,0
26-12-2019 10,9     16,4     24,3 13,4 35 54 84 1.023 1.026 1.031 OSO 4,2 22,6 0,0
25-12-2019 10,9     15,3     20,8 9,9 45 67 82 1.024 1.025 1.027 SSE 3,3 13,7 0,0
24-12-2019 13,3     17,4     23,2 9,9 41 53 71 1.026 1.027 1.029 ONO 6,9 29,0 0,0
23-12-2019 13,4     16,1     20,2 6,8 42 52 62 1.021 1.025 1.028 ONO 9,0 35,2 0,0
22-12-2019 14,9     18,3     19,2 4,3 49 54 57 1.015 1.018 1.020 ONO 11,8 67,9 0,0
15-12-2019 12,8     13,2     13,7 0,9 59 61 62 1.024 1.024 1.026 ONO 7,8 24,1 0,0
14-12-2019 13,4     15,9     18,4 5,0 49 57 62 1.015 1.019 1.026 ONO 10,4 42,0 0,0
13-12-2019 14,9     17,6     19,5 4,6 51 59 67 1.009 1.012 1.018 ONO 14,4 54,2 0,0
Últims 13 mesos disponibles
12/2019 5,3 10,6 14,9 13,5 12,7 17,3 24,3 19,0 51 70 94 1.008 1.023 1.034 ONO 7,2 67,9 92,1
11/2019 6,4 12,2 21,1 15,5 15,4 19,6 28,3 21,9 41 56 77 999 1.012 1.019 ONO 8,6 52,5 10,4
10/2019 11,9 16,1 20,4 20,1 16,2 24,8 34,8 22,9 42 68 84 1.009 1.018 1.023 SO 5,3 29,0 26,6
09/2019 15,5 20,3 23,2 23,8 21,6 27,8 34,1 18,6 35 71 84 1.011 1.018 1.025 SO 6,2 49,2 90,8
08/2019 18,2 22,7 27,2 26,5 26,7 30,7 41,3 23,1 39 69 79 1.011 1.016 1.021 S 6,1 40,0 6,6
07/2019 21,4 23,0 24,9 26,9 27,3 30,9 37,4 16,0 43 65 76 1.006 1.015 1.022 SSO 6,2 50,3 6,6
06/2019 13,7 18,4 22,4 22,8 20,9 27,1 34,6 20,9 35 63 77 1.009 1.016 1.023 S 6,3 42,0 0,0
05/2019 9,8 14,7 20,7 19,0 18,9 23,2 32,4 22,6 47 64 82 1.006 1.016 1.025 SSO 6,5 47,4 11,3
04/2019 8,6 11,6 14,7 15,4 15,2 19,9 29,9 21,3 37 65 96 1.000 1.014 1.026 SO 7,2 47,7 117,3
03/2019 6,9 9,8 15,7 14,7 12,8 20,0 28,6 21,7 38 56 88 1.011 1.024 1.031 SO 5,9 49,2 19,0
02/2019 4,7 7,5 10,9 12,3 12,5 17,8 26,1 21,4 33 62 78 996 1.026 1.035 OSO 6,1 62,2 0,0
01/2019 1,8 7,0 12,7 11,3 11,9 16,8 20,2 18,4 39 56 76 1.003 1.020 1.031 SO 6,5 59,0 0,0
12/2018 4,7 9,6 14,5 13,3 14,2 18,1 22,8 18,1 50 67 90 1.009 1.026 1.031 O 5,7 46,1 12,2
Tots els anys disponibles
2019 1,8 14,6 27,2 18,6 11,9 23,1 41,3 39,5 33 64 96 996 1.018 1.035 SO 6,5 67,9 363,9
2018 2,4 14,9 26,9 18,3 5,9 21,9 36,1 33,7 36 66 96 994 1.017 1.037 O 1,0 74,0 751,9
Temperatura (°C)
Humitat relativa (%)
Velocitat del vent i ràfega màxima (km/h)
Direcció del vent (°)
Pressió (hPa)
Precipitació (mm)
Nota sobre les dades: s'avisa a l'usuari de la provisionalitat i no oficialitat d'aquestes dades
Logo AVAMET blanc
Web allotjada a Sollutia
Llicència de Creative CommonsLa web d'AVAMET i els seus continguts estan subjectes a una llicència de
Reconeixement - No Comercial - Compartir igual
Últimes estacions: Llíria (Aj. Soci/Inforatge), Orihuela - Las Norias, Orihuela - Lo Capitán, Cox & Guardamar del Segura - horta (Meteorihuela), l'Alcúdia - Carriona & el Real de Gandia (Inforatge), Benicàssim - les Vil·les (Soci),  l'Alfàs del Pi - l'Albir (Soci), Xixona - Segorb-Vistabella (Soci), - - -